sensor_id;sensor_type;location;lat;lon;timestamp;P1;durP1;ratioP1;P2;durP2;ratioP2
23573;SDS011;11965;53.640;10.050;2023-05-10T00:02:09;6.64;;;6.64;;
23573;SDS011;11965;53.640;10.050;2023-05-10T00:04:37;6.45;;;6.45;;
23573;SDS011;11965;53.640;10.050;2023-05-10T00:07:04;7.16;;;7.16;;
23573;SDS011;11965;53.640;10.050;2023-05-10T00:09:31;6.40;;;6.40;;
23573;SDS011;11965;53.640;10.050;2023-05-10T00:11:58;6.64;;;6.64;;
23573;SDS011;11965;53.640;10.050;2023-05-10T00:14:24;6.75;;;6.75;;
23573;SDS011;11965;53.640;10.050;2023-05-10T00:16:51;6.83;;;6.83;;
23573;SDS011;11965;53.640;10.050;2023-05-10T00:19:21;6.75;;;6.75;;
23573;SDS011;11965;53.640;10.050;2023-05-10T00:21:49;6.83;;;6.83;;
23573;SDS011;11965;53.640;10.050;2023-05-10T00:24:19;6.57;;;6.57;;
23573;SDS011;11965;53.640;10.050;2023-05-10T00:26:46;6.92;;;6.92;;
23573;SDS011;11965;53.640;10.050;2023-05-10T00:29:12;6.99;;;6.99;;
23573;SDS011;11965;53.640;10.050;2023-05-10T00:31:39;7.66;;;7.66;;
23573;SDS011;11965;53.640;10.050;2023-05-10T00:34:06;7.08;;;7.08;;
23573;SDS011;11965;53.640;10.050;2023-05-10T00:36:33;7.06;;;7.06;;
23573;SDS011;11965;53.640;10.050;2023-05-10T00:39:01;7.35;;;7.35;;
23573;SDS011;11965;53.640;10.050;2023-05-10T00:41:29;7.00;;;7.00;;
23573;SDS011;11965;53.640;10.050;2023-05-10T00:43:57;7.01;;;7.01;;
23573;SDS011;11965;53.640;10.050;2023-05-10T00:46:25;6.78;;;6.78;;
23573;SDS011;11965;53.640;10.050;2023-05-10T00:48:53;7.40;;;7.40;;
23573;SDS011;11965;53.640;10.050;2023-05-10T00:51:23;7.00;;;7.00;;
23573;SDS011;11965;53.640;10.050;2023-05-10T00:53:50;7.35;;;7.35;;
23573;SDS011;11965;53.640;10.050;2023-05-10T00:56:19;7.17;;;7.17;;
23573;SDS011;11965;53.640;10.050;2023-05-10T00:58:48;6.31;;;6.31;;
23573;SDS011;11965;53.640;10.050;2023-05-10T01:01:15;7.05;;;7.05;;
23573;SDS011;11965;53.640;10.050;2023-05-10T01:03:42;6.97;;;6.97;;
23573;SDS011;11965;53.640;10.050;2023-05-10T01:06:09;6.73;;;6.73;;
23573;SDS011;11965;53.640;10.050;2023-05-10T01:08:36;7.08;;;7.08;;
23573;SDS011;11965;53.640;10.050;2023-05-10T01:11:04;7.15;;;7.15;;
23573;SDS011;11965;53.640;10.050;2023-05-10T01:13:33;7.23;;;7.23;;
23573;SDS011;11965;53.640;10.050;2023-05-10T01:16:07;7.22;;;7.22;;
23573;SDS011;11965;53.640;10.050;2023-05-10T01:18:35;7.15;;;7.15;;
23573;SDS011;11965;53.640;10.050;2023-05-10T01:21:07;7.30;;;7.30;;
23573;SDS011;11965;53.640;10.050;2023-05-10T01:23:53;7.44;;;7.44;;
23573;SDS011;11965;53.640;10.050;2023-05-10T01:26:50;7.04;;;7.04;;
23573;SDS011;11965;53.640;10.050;2023-05-10T01:29:53;7.49;;;7.49;;
23573;SDS011;11965;53.640;10.050;2023-05-10T01:32:37;7.47;;;7.47;;
23573;SDS011;11965;53.640;10.050;2023-05-10T01:35:14;7.09;;;7.09;;
23573;SDS011;11965;53.640;10.050;2023-05-10T01:37:47;7.15;;;7.15;;
23573;SDS011;11965;53.640;10.050;2023-05-10T01:40:25;7.19;;;7.19;;
23573;SDS011;11965;53.640;10.050;2023-05-10T01:42:59;7.25;;;7.25;;
23573;SDS011;11965;53.640;10.050;2023-05-10T01:45:30;7.23;;;7.23;;
23573;SDS011;11965;53.640;10.050;2023-05-10T01:48:06;7.69;;;7.69;;
23573;SDS011;11965;53.640;10.050;2023-05-10T01:50:36;7.46;;;7.46;;
23573;SDS011;11965;53.640;10.050;2023-05-10T01:53:06;7.36;;;7.36;;
23573;SDS011;11965;53.640;10.050;2023-05-10T01:55:41;7.57;;;7.57;;
23573;SDS011;11965;53.640;10.050;2023-05-10T01:58:13;7.12;;;7.12;;
23573;SDS011;11965;53.640;10.050;2023-05-10T02:00:44;7.07;;;7.07;;
23573;SDS011;11965;53.640;10.050;2023-05-10T02:03:14;7.16;;;7.16;;
23573;SDS011;11965;53.640;10.050;2023-05-10T02:05:44;7.17;;;7.17;;
23573;SDS011;11965;53.640;10.050;2023-05-10T02:08:15;7.22;;;7.22;;
23573;SDS011;11965;53.640;10.050;2023-05-10T02:10:44;6.95;;;6.95;;
23573;SDS011;11965;53.640;10.050;2023-05-10T02:13:13;7.54;;;7.54;;
23573;SDS011;11965;53.640;10.050;2023-05-10T02:15:43;7.29;;;7.29;;
23573;SDS011;11965;53.640;10.050;2023-05-10T02:18:16;7.43;;;7.43;;
23573;SDS011;11965;53.640;10.050;2023-05-10T02:20:44;7.55;;;7.55;;
23573;SDS011;11965;53.640;10.050;2023-05-10T02:23:14;7.25;;;7.25;;
23573;SDS011;11965;53.640;10.050;2023-05-10T02:25:44;7.62;;;7.62;;
23573;SDS011;11965;53.640;10.050;2023-05-10T02:28:15;7.11;;;7.11;;
23573;SDS011;11965;53.640;10.050;2023-05-10T02:30:47;7.27;;;7.27;;
23573;SDS011;11965;53.640;10.050;2023-05-10T02:33:17;7.59;;;7.59;;
23573;SDS011;11965;53.640;10.050;2023-05-10T02:35:46;7.52;;;7.52;;
23573;SDS011;11965;53.640;10.050;2023-05-10T02:38:14;7.60;;;7.60;;
23573;SDS011;11965;53.640;10.050;2023-05-10T02:40:42;7.53;;;7.53;;
23573;SDS011;11965;53.640;10.050;2023-05-10T02:43:12;7.67;;;7.67;;
23573;SDS011;11965;53.640;10.050;2023-05-10T02:45:42;7.53;;;7.53;;
23573;SDS011;11965;53.640;10.050;2023-05-10T02:48:13;7.45;;;7.45;;
23573;SDS011;11965;53.640;10.050;2023-05-10T02:50:43;7.63;;;7.63;;
23573;SDS011;11965;53.640;10.050;2023-05-10T02:53:15;7.84;;;7.84;;
23573;SDS011;11965;53.640;10.050;2023-05-10T02:55:45;7.53;;;7.53;;
23573;SDS011;11965;53.640;10.050;2023-05-10T02:58:18;7.72;;;7.72;;
23573;SDS011;11965;53.640;10.050;2023-05-10T03:00:46;7.46;;;7.46;;
23573;SDS011;11965;53.640;10.050;2023-05-10T03:03:12;7.48;;;7.48;;
23573;SDS011;11965;53.640;10.050;2023-05-10T03:05:39;7.50;;;7.50;;
23573;SDS011;11965;53.640;10.050;2023-05-10T03:08:08;7.55;;;7.55;;
23573;SDS011;11965;53.640;10.050;2023-05-10T03:10:39;7.14;;;7.14;;
23573;SDS011;11965;53.640;10.050;2023-05-10T03:13:20;7.43;;;7.43;;
23573;SDS011;11965;53.640;10.050;2023-05-10T03:16:07;7.83;;;7.83;;
23573;SDS011;11965;53.640;10.050;2023-05-10T03:18:41;7.54;;;7.54;;
23573;SDS011;11965;53.640;10.050;2023-05-10T03:21:14;8.12;;;8.12;;
23573;SDS011;11965;53.640;10.050;2023-05-10T03:23:53;7.92;;;7.92;;
23573;SDS011;11965;53.640;10.050;2023-05-10T03:26:29;7.38;;;7.38;;
23573;SDS011;11965;53.640;10.050;2023-05-10T03:29:11;7.45;;;7.45;;
23573;SDS011;11965;53.640;10.050;2023-05-10T03:31:40;7.64;;;7.64;;
23573;SDS011;11965;53.640;10.050;2023-05-10T03:34:08;7.76;;;7.76;;
23573;SDS011;11965;53.640;10.050;2023-05-10T03:36:35;7.95;;;7.95;;
23573;SDS011;11965;53.640;10.050;2023-05-10T03:39:04;7.64;;;7.64;;
23573;SDS011;11965;53.640;10.050;2023-05-10T03:41:30;7.87;;;7.87;;
23573;SDS011;11965;53.640;10.050;2023-05-10T03:43:57;7.88;;;7.88;;
23573;SDS011;11965;53.640;10.050;2023-05-10T03:46:24;7.53;;;7.53;;
23573;SDS011;11965;53.640;10.050;2023-05-10T03:48:51;7.36;;;7.36;;
23573;SDS011;11965;53.640;10.050;2023-05-10T03:51:18;7.79;;;7.79;;
23573;SDS011;11965;53.640;10.050;2023-05-10T03:53:45;8.16;;;8.16;;
23573;SDS011;11965;53.640;10.050;2023-05-10T03:56:14;7.77;;;7.77;;
23573;SDS011;11965;53.640;10.050;2023-05-10T03:58:40;7.74;;;7.74;;
23573;SDS011;11965;53.640;10.050;2023-05-10T04:01:07;7.65;;;7.65;;
23573;SDS011;11965;53.640;10.050;2023-05-10T04:03:36;7.83;;;7.83;;
23573;SDS011;11965;53.640;10.050;2023-05-10T04:06:04;8.13;;;8.13;;
23573;SDS011;11965;53.640;10.050;2023-05-10T04:08:33;7.62;;;7.62;;
23573;SDS011;11965;53.640;10.050;2023-05-10T04:11:06;8.00;;;8.00;;
23573;SDS011;11965;53.640;10.050;2023-05-10T04:13:36;7.89;;;7.89;;
23573;SDS011;11965;53.640;10.050;2023-05-10T04:16:03;7.77;;;7.77;;
23573;SDS011;11965;53.640;10.050;2023-05-10T04:18:30;7.64;;;7.64;;
23573;SDS011;11965;53.640;10.050;2023-05-10T04:20:57;7.75;;;7.75;;
23573;SDS011;11965;53.640;10.050;2023-05-10T04:23:24;7.68;;;7.68;;
23573;SDS011;11965;53.640;10.050;2023-05-10T04:25:52;7.65;;;7.65;;
23573;SDS011;11965;53.640;10.050;2023-05-10T04:28:19;8.16;;;8.16;;
23573;SDS011;11965;53.640;10.050;2023-05-10T04:30:48;7.85;;;7.85;;
23573;SDS011;11965;53.640;10.050;2023-05-10T04:33:15;7.84;;;7.84;;
23573;SDS011;11965;53.640;10.050;2023-05-10T04:35:42;8.00;;;8.00;;
23573;SDS011;11965;53.640;10.050;2023-05-10T04:38:09;7.76;;;7.76;;
23573;SDS011;11965;53.640;10.050;2023-05-10T04:40:36;7.88;;;7.88;;
23573;SDS011;11965;53.640;10.050;2023-05-10T04:43:03;8.30;;;8.30;;
23573;SDS011;11965;53.640;10.050;2023-05-10T04:45:30;7.76;;;7.76;;
23573;SDS011;11965;53.640;10.050;2023-05-10T04:47:58;8.04;;;8.04;;
23573;SDS011;11965;53.640;10.050;2023-05-10T04:50:27;8.24;;;8.24;;
23573;SDS011;11965;53.640;10.050;2023-05-10T04:52:53;7.87;;;7.87;;
23573;SDS011;11965;53.640;10.050;2023-05-10T04:55:21;8.04;;;8.04;;
23573;SDS011;11965;53.640;10.050;2023-05-10T04:57:48;8.07;;;8.07;;
23573;SDS011;11965;53.640;10.050;2023-05-10T05:00:15;7.78;;;7.78;;
23573;SDS011;11965;53.640;10.050;2023-05-10T05:02:42;8.14;;;8.14;;
23573;SDS011;11965;53.640;10.050;2023-05-10T05:05:11;7.95;;;7.95;;
23573;SDS011;11965;53.640;10.050;2023-05-10T05:07:38;8.00;;;8.00;;
23573;SDS011;11965;53.640;10.050;2023-05-10T05:10:06;7.81;;;7.81;;
23573;SDS011;11965;53.640;10.050;2023-05-10T05:12:34;7.78;;;7.78;;
23573;SDS011;11965;53.640;10.050;2023-05-10T05:15:01;7.76;;;7.76;;
23573;SDS011;11965;53.640;10.050;2023-05-10T05:17:29;8.08;;;8.08;;
23573;SDS011;11965;53.640;10.050;2023-05-10T05:20:00;8.17;;;8.17;;
23573;SDS011;11965;53.640;10.050;2023-05-10T05:22:28;7.41;;;7.41;;
23573;SDS011;11965;53.640;10.050;2023-05-10T05:24:55;7.65;;;7.65;;
23573;SDS011;11965;53.640;10.050;2023-05-10T05:27:23;7.76;;;7.76;;
23573;SDS011;11965;53.640;10.050;2023-05-10T05:29:53;8.13;;;8.13;;
23573;SDS011;11965;53.640;10.050;2023-05-10T05:32:20;8.10;;;8.10;;
23573;SDS011;11965;53.640;10.050;2023-05-10T05:34:47;7.68;;;7.68;;
23573;SDS011;11965;53.640;10.050;2023-05-10T05:37:14;7.97;;;7.97;;
23573;SDS011;11965;53.640;10.050;2023-05-10T05:39:43;8.29;;;8.29;;
23573;SDS011;11965;53.640;10.050;2023-05-10T05:42:10;7.96;;;7.96;;
23573;SDS011;11965;53.640;10.050;2023-05-10T05:44:39;8.08;;;8.08;;
23573;SDS011;11965;53.640;10.050;2023-05-10T05:47:06;8.06;;;8.06;;
23573;SDS011;11965;53.640;10.050;2023-05-10T05:49:32;8.02;;;8.02;;
23573;SDS011;11965;53.640;10.050;2023-05-10T05:51:59;7.83;;;7.83;;
23573;SDS011;11965;53.640;10.050;2023-05-10T05:54:27;7.88;;;7.88;;
23573;SDS011;11965;53.640;10.050;2023-05-10T05:56:56;7.68;;;7.68;;
23573;SDS011;11965;53.640;10.050;2023-05-10T05:59:23;8.10;;;8.10;;
23573;SDS011;11965;53.640;10.050;2023-05-10T06:01:50;7.97;;;7.97;;
23573;SDS011;11965;53.640;10.050;2023-05-10T06:04:17;7.60;;;7.60;;
23573;SDS011;11965;53.640;10.050;2023-05-10T06:06:45;8.07;;;8.07;;
23573;SDS011;11965;53.640;10.050;2023-05-10T06:09:12;7.91;;;7.91;;
23573;SDS011;11965;53.640;10.050;2023-05-10T06:11:39;7.60;;;7.60;;
23573;SDS011;11965;53.640;10.050;2023-05-10T06:14:08;7.72;;;7.72;;
23573;SDS011;11965;53.640;10.050;2023-05-10T06:16:34;7.69;;;7.69;;
23573;SDS011;11965;53.640;10.050;2023-05-10T06:19:01;7.79;;;7.79;;
23573;SDS011;11965;53.640;10.050;2023-05-10T06:21:28;8.26;;;8.26;;
23573;SDS011;11965;53.640;10.050;2023-05-10T06:23:56;7.85;;;7.85;;
23573;SDS011;11965;53.640;10.050;2023-05-10T06:26:23;7.49;;;7.49;;
23573;SDS011;11965;53.640;10.050;2023-05-10T06:28:50;8.04;;;8.04;;
23573;SDS011;11965;53.640;10.050;2023-05-10T06:31:18;7.66;;;7.66;;
23573;SDS011;11965;53.640;10.050;2023-05-10T06:33:45;7.61;;;7.61;;
23573;SDS011;11965;53.640;10.050;2023-05-10T06:36:12;7.59;;;7.59;;
23573;SDS011;11965;53.640;10.050;2023-05-10T06:38:39;7.64;;;7.64;;
23573;SDS011;11965;53.640;10.050;2023-05-10T06:41:06;7.68;;;7.68;;
23573;SDS011;11965;53.640;10.050;2023-05-10T06:43:33;7.67;;;7.67;;
23573;SDS011;11965;53.640;10.050;2023-05-10T06:46:00;7.55;;;7.55;;
23573;SDS011;11965;53.640;10.050;2023-05-10T06:48:28;7.78;;;7.78;;
23573;SDS011;11965;53.640;10.050;2023-05-10T06:50:55;7.46;;;7.46;;
23573;SDS011;11965;53.640;10.050;2023-05-10T06:53:22;7.46;;;7.46;;
23573;SDS011;11965;53.640;10.050;2023-05-10T06:55:49;7.64;;;7.64;;
23573;SDS011;11965;53.640;10.050;2023-05-10T06:58:16;7.57;;;7.57;;
23573;SDS011;11965;53.640;10.050;2023-05-10T07:00:43;7.55;;;7.55;;
23573;SDS011;11965;53.640;10.050;2023-05-10T07:03:10;7.81;;;7.81;;
23573;SDS011;11965;53.640;10.050;2023-05-10T07:05:39;7.70;;;7.70;;
23573;SDS011;11965;53.640;10.050;2023-05-10T07:08:05;7.59;;;7.59;;
23573;SDS011;11965;53.640;10.050;2023-05-10T07:10:32;8.00;;;8.00;;
23573;SDS011;11965;53.640;10.050;2023-05-10T07:12:59;7.37;;;7.37;;
23573;SDS011;11965;53.640;10.050;2023-05-10T07:15:26;7.78;;;7.78;;
23573;SDS011;11965;53.640;10.050;2023-05-10T07:17:53;7.64;;;7.64;;
23573;SDS011;11965;53.640;10.050;2023-05-10T07:20:20;7.99;;;7.99;;
23573;SDS011;11965;53.640;10.050;2023-05-10T07:22:48;7.52;;;7.52;;
23573;SDS011;11965;53.640;10.050;2023-05-10T07:25:15;7.17;;;7.17;;
23573;SDS011;11965;53.640;10.050;2023-05-10T07:27:42;7.78;;;7.78;;
23573;SDS011;11965;53.640;10.050;2023-05-10T07:30:10;7.15;;;7.15;;
23573;SDS011;11965;53.640;10.050;2023-05-10T07:32:37;7.35;;;7.35;;
23573;SDS011;11965;53.640;10.050;2023-05-10T07:35:04;7.62;;;7.62;;
23573;SDS011;11965;53.640;10.050;2023-05-10T07:37:32;7.40;;;7.40;;
23573;SDS011;11965;53.640;10.050;2023-05-10T07:40:00;7.27;;;7.27;;
23573;SDS011;11965;53.640;10.050;2023-05-10T07:42:27;7.59;;;7.59;;
23573;SDS011;11965;53.640;10.050;2023-05-10T07:44:54;7.52;;;7.52;;
23573;SDS011;11965;53.640;10.050;2023-05-10T07:47:20;7.35;;;7.35;;
23573;SDS011;11965;53.640;10.050;2023-05-10T07:49:47;7.27;;;7.27;;
23573;SDS011;11965;53.640;10.050;2023-05-10T07:52:14;7.42;;;7.42;;
23573;SDS011;11965;53.640;10.050;2023-05-10T07:54:41;7.46;;;7.46;;
23573;SDS011;11965;53.640;10.050;2023-05-10T07:57:09;7.39;;;7.39;;
23573;SDS011;11965;53.640;10.050;2023-05-10T07:59:36;7.59;;;7.59;;
23573;SDS011;11965;53.640;10.050;2023-05-10T08:02:03;7.66;;;7.66;;
23573;SDS011;11965;53.640;10.050;2023-05-10T08:04:30;7.42;;;7.42;;
23573;SDS011;11965;53.640;10.050;2023-05-10T08:06:57;7.76;;;7.76;;
23573;SDS011;11965;53.640;10.050;2023-05-10T08:09:24;7.54;;;7.54;;
23573;SDS011;11965;53.640;10.050;2023-05-10T08:11:50;8.04;;;8.04;;
23573;SDS011;11965;53.640;10.050;2023-05-10T08:14:19;7.47;;;7.47;;
23573;SDS011;11965;53.640;10.050;2023-05-10T08:16:46;7.68;;;7.68;;
23573;SDS011;11965;53.640;10.050;2023-05-10T08:19:13;7.31;;;7.31;;
23573;SDS011;11965;53.640;10.050;2023-05-10T08:21:44;7.80;;;7.80;;
23573;SDS011;11965;53.640;10.050;2023-05-10T08:24:11;7.56;;;7.56;;
23573;SDS011;11965;53.640;10.050;2023-05-10T08:26:38;7.34;;;7.34;;
23573;SDS011;11965;53.640;10.050;2023-05-10T08:29:05;7.96;;;7.96;;
23573;SDS011;11965;53.640;10.050;2023-05-10T08:31:33;7.76;;;7.76;;
23573;SDS011;11965;53.640;10.050;2023-05-10T08:34:00;7.27;;;7.27;;
23573;SDS011;11965;53.640;10.050;2023-05-10T08:36:27;7.59;;;7.59;;
23573;SDS011;11965;53.640;10.050;2023-05-10T08:38:54;7.82;;;7.82;;
23573;SDS011;11965;53.640;10.050;2023-05-10T08:41:21;7.65;;;7.65;;
23573;SDS011;11965;53.640;10.050;2023-05-10T08:43:51;7.74;;;7.74;;
23573;SDS011;11965;53.640;10.050;2023-05-10T08:46:20;7.85;;;7.85;;
23573;SDS011;11965;53.640;10.050;2023-05-10T08:48:50;8.18;;;8.18;;
23573;SDS011;11965;53.640;10.050;2023-05-10T08:51:18;7.86;;;7.86;;
23573;SDS011;11965;53.640;10.050;2023-05-10T08:53:49;7.82;;;7.82;;
23573;SDS011;11965;53.640;10.050;2023-05-10T08:56:16;8.27;;;8.27;;
23573;SDS011;11965;53.640;10.050;2023-05-10T08:58:44;7.40;;;7.40;;
23573;SDS011;11965;53.640;10.050;2023-05-10T09:01:12;7.43;;;7.43;;
23573;SDS011;11965;53.640;10.050;2023-05-10T09:03:42;7.55;;;7.55;;
23573;SDS011;11965;53.640;10.050;2023-05-10T09:06:13;7.70;;;7.70;;
23573;SDS011;11965;53.640;10.050;2023-05-10T09:08:41;8.22;;;8.22;;
23573;SDS011;11965;53.640;10.050;2023-05-10T09:11:09;7.78;;;7.78;;
23573;SDS011;11965;53.640;10.050;2023-05-10T09:13:38;7.83;;;7.83;;
23573;SDS011;11965;53.640;10.050;2023-05-10T09:16:05;8.22;;;8.22;;
23573;SDS011;11965;53.640;10.050;2023-05-10T09:18:32;7.65;;;7.65;;
23573;SDS011;11965;53.640;10.050;2023-05-10T09:20:59;7.88;;;7.88;;
23573;SDS011;11965;53.640;10.050;2023-05-10T09:23:28;7.77;;;7.77;;
23573;SDS011;11965;53.640;10.050;2023-05-10T09:26:03;7.63;;;7.63;;
23573;SDS011;11965;53.640;10.050;2023-05-10T09:28:31;7.82;;;7.82;;
23573;SDS011;11965;53.640;10.050;2023-05-10T09:30:59;8.52;;;8.52;;
23573;SDS011;11965;53.640;10.050;2023-05-10T09:33:26;8.29;;;8.29;;
23573;SDS011;11965;53.640;10.050;2023-05-10T09:35:53;8.24;;;8.24;;
23573;SDS011;11965;53.640;10.050;2023-05-10T09:38:19;8.73;;;8.73;;
23573;SDS011;11965;53.640;10.050;2023-05-10T09:40:51;8.07;;;8.07;;
23573;SDS011;11965;53.640;10.050;2023-05-10T09:43:20;8.61;;;8.61;;
23573;SDS011;11965;53.640;10.050;2023-05-10T09:45:48;8.44;;;8.44;;
23573;SDS011;11965;53.640;10.050;2023-05-10T09:48:16;8.28;;;8.28;;
23573;SDS011;11965;53.640;10.050;2023-05-10T09:50:42;8.46;;;8.46;;
23573;SDS011;11965;53.640;10.050;2023-05-10T09:53:09;9.00;;;9.00;;
23573;SDS011;11965;53.640;10.050;2023-05-10T09:55:42;7.94;;;7.94;;
23573;SDS011;11965;53.640;10.050;2023-05-10T09:58:12;8.38;;;8.38;;
23573;SDS011;11965;53.640;10.050;2023-05-10T10:00:40;8.16;;;8.16;;
23573;SDS011;11965;53.640;10.050;2023-05-10T10:03:12;8.35;;;8.35;;
23573;SDS011;11965;53.640;10.050;2023-05-10T10:05:40;8.46;;;8.46;;
23573;SDS011;11965;53.640;10.050;2023-05-10T10:08:09;9.25;;;9.25;;
23573;SDS011;11965;53.640;10.050;2023-05-10T10:10:37;9.12;;;9.12;;
23573;SDS011;11965;53.640;10.050;2023-05-10T10:13:05;9.30;;;9.30;;
23573;SDS011;11965;53.640;10.050;2023-05-10T10:15:34;9.29;;;9.29;;
23573;SDS011;11965;53.640;10.050;2023-05-10T10:18:01;8.95;;;8.95;;
23573;SDS011;11965;53.640;10.050;2023-05-10T10:20:30;9.15;;;9.15;;
23573;SDS011;11965;53.640;10.050;2023-05-10T10:22:57;9.72;;;9.72;;
23573;SDS011;11965;53.640;10.050;2023-05-10T10:25:24;10.04;;;10.04;;
23573;SDS011;11965;53.640;10.050;2023-05-10T10:27:58;10.04;;;10.04;;
23573;SDS011;11965;53.640;10.050;2023-05-10T10:30:41;10.56;;;10.56;;
23573;SDS011;11965;53.640;10.050;2023-05-10T10:33:18;11.29;;;11.29;;
23573;SDS011;11965;53.640;10.050;2023-05-10T10:36:01;11.31;;;11.31;;
23573;SDS011;11965;53.640;10.050;2023-05-10T10:38:36;11.73;;;11.73;;
23573;SDS011;11965;53.640;10.050;2023-05-10T10:41:28;11.92;;;11.92;;
23573;SDS011;11965;53.640;10.050;2023-05-10T10:47:06;12.55;;;12.55;;
23573;SDS011;11965;53.640;10.050;2023-05-10T10:49:50;12.41;;;12.41;;
23573;SDS011;11965;53.640;10.050;2023-05-10T10:52:21;12.88;;;12.88;;
23573;SDS011;11965;53.640;10.050;2023-05-10T10:54:52;13.41;;;13.41;;
23573;SDS011;11965;53.640;10.050;2023-05-10T10:57:24;13.86;;;13.86;;
23573;SDS011;11965;53.640;10.050;2023-05-10T10:59:51;13.76;;;13.76;;
23573;SDS011;11965;53.640;10.050;2023-05-10T11:02:33;13.33;;;13.33;;
23573;SDS011;11965;53.640;10.050;2023-05-10T11:08:16;13.62;;;13.62;;
23573;SDS011;11965;53.640;10.050;2023-05-10T11:10:49;13.26;;;13.26;;
23573;SDS011;11965;53.640;10.050;2023-05-10T11:13:26;13.78;;;13.78;;
23573;SDS011;11965;53.640;10.050;2023-05-10T11:15:55;13.80;;;13.80;;
23573;SDS011;11965;53.640;10.050;2023-05-10T11:18:26;13.13;;;13.13;;
23573;SDS011;11965;53.640;10.050;2023-05-10T11:20:56;13.64;;;13.64;;
23573;SDS011;11965;53.640;10.050;2023-05-10T11:23:29;13.57;;;13.57;;
23573;SDS011;11965;53.640;10.050;2023-05-10T11:25:58;13.42;;;13.42;;
23573;SDS011;11965;53.640;10.050;2023-05-10T11:28:26;13.78;;;13.78;;
23573;SDS011;11965;53.640;10.050;2023-05-10T11:30:54;13.93;;;13.93;;
23573;SDS011;11965;53.640;10.050;2023-05-10T11:33:21;14.57;;;14.57;;
23573;SDS011;11965;53.640;10.050;2023-05-10T11:35:49;13.63;;;13.63;;
23573;SDS011;11965;53.640;10.050;2023-05-10T11:38:16;13.62;;;13.62;;
23573;SDS011;11965;53.640;10.050;2023-05-10T11:40:43;13.70;;;13.70;;
23573;SDS011;11965;53.640;10.050;2023-05-10T11:43:10;12.91;;;12.91;;
23573;SDS011;11965;53.640;10.050;2023-05-10T11:45:37;12.97;;;12.97;;
23573;SDS011;11965;53.640;10.050;2023-05-10T11:48:06;13.44;;;13.44;;
23573;SDS011;11965;53.640;10.050;2023-05-10T11:50:34;13.50;;;13.50;;
23573;SDS011;11965;53.640;10.050;2023-05-10T11:53:02;13.55;;;13.55;;
23573;SDS011;11965;53.640;10.050;2023-05-10T11:55:30;13.77;;;13.77;;
23573;SDS011;11965;53.640;10.050;2023-05-10T11:58:00;13.62;;;13.62;;
23573;SDS011;11965;53.640;10.050;2023-05-10T12:00:29;13.42;;;13.42;;
23573;SDS011;11965;53.640;10.050;2023-05-10T12:02:57;14.13;;;14.13;;
23573;SDS011;11965;53.640;10.050;2023-05-10T12:05:24;14.03;;;14.03;;
23573;SDS011;11965;53.640;10.050;2023-05-10T12:07:52;13.58;;;13.58;;
23573;SDS011;11965;53.640;10.050;2023-05-10T12:10:25;13.60;;;13.60;;
23573;SDS011;11965;53.640;10.050;2023-05-10T12:12:53;14.55;;;14.55;;
23573;SDS011;11965;53.640;10.050;2023-05-10T12:15:21;15.08;;;15.08;;
23573;SDS011;11965;53.640;10.050;2023-05-10T12:17:49;16.02;;;16.02;;
23573;SDS011;11965;53.640;10.050;2023-05-10T12:20:18;16.39;;;16.39;;
23573;SDS011;11965;53.640;10.050;2023-05-10T12:22:47;17.49;;;17.49;;
23573;SDS011;11965;53.640;10.050;2023-05-10T12:25:17;17.70;;;17.70;;
23573;SDS011;11965;53.640;10.050;2023-05-10T12:27:49;17.29;;;17.29;;
23573;SDS011;11965;53.640;10.050;2023-05-10T12:30:21;16.52;;;16.52;;
23573;SDS011;11965;53.640;10.050;2023-05-10T12:32:49;16.49;;;16.49;;
23573;SDS011;11965;53.640;10.050;2023-05-10T12:35:16;16.86;;;16.86;;
23573;SDS011;11965;53.640;10.050;2023-05-10T12:37:47;17.16;;;17.16;;
23573;SDS011;11965;53.640;10.050;2023-05-10T12:40:14;17.20;;;17.20;;
23573;SDS011;11965;53.640;10.050;2023-05-10T12:42:41;17.05;;;17.05;;
23573;SDS011;11965;53.640;10.050;2023-05-10T12:45:11;17.05;;;17.05;;
23573;SDS011;11965;53.640;10.050;2023-05-10T12:47:39;17.49;;;17.49;;
23573;SDS011;11965;53.640;10.050;2023-05-10T12:50:08;16.67;;;16.67;;
23573;SDS011;11965;53.640;10.050;2023-05-10T12:52:36;17.18;;;17.18;;
23573;SDS011;11965;53.640;10.050;2023-05-10T12:55:04;16.63;;;16.63;;
23573;SDS011;11965;53.640;10.050;2023-05-10T12:57:31;16.24;;;16.24;;
23573;SDS011;11965;53.640;10.050;2023-05-10T12:59:58;16.03;;;16.03;;
23573;SDS011;11965;53.640;10.050;2023-05-10T13:02:27;15.28;;;15.28;;
23573;SDS011;11965;53.640;10.050;2023-05-10T13:04:54;16.03;;;16.03;;
23573;SDS011;11965;53.640;10.050;2023-05-10T13:07:21;16.24;;;16.24;;
23573;SDS011;11965;53.640;10.050;2023-05-10T13:09:50;15.08;;;15.08;;
23573;SDS011;11965;53.640;10.050;2023-05-10T13:12:17;13.07;;;13.07;;
23573;SDS011;11965;53.640;10.050;2023-05-10T13:14:44;11.75;;;11.75;;
23573;SDS011;11965;53.640;10.050;2023-05-10T13:17:11;10.91;;;10.91;;
23573;SDS011;11965;53.640;10.050;2023-05-10T13:19:39;11.44;;;11.44;;
23573;SDS011;11965;53.640;10.050;2023-05-10T13:22:06;11.93;;;11.93;;
23573;SDS011;11965;53.640;10.050;2023-05-10T13:24:33;9.45;;;9.45;;
23573;SDS011;11965;53.640;10.050;2023-05-10T13:27:00;9.49;;;9.49;;
23573;SDS011;11965;53.640;10.050;2023-05-10T13:29:27;11.09;;;11.09;;
23573;SDS011;11965;53.640;10.050;2023-05-10T13:31:54;13.09;;;13.09;;
23573;SDS011;11965;53.640;10.050;2023-05-10T13:34:21;12.31;;;12.31;;
23573;SDS011;11965;53.640;10.050;2023-05-10T13:36:50;12.41;;;12.41;;
23573;SDS011;11965;53.640;10.050;2023-05-10T13:39:19;11.37;;;11.37;;
23573;SDS011;11965;53.640;10.050;2023-05-10T13:41:46;10.85;;;10.85;;
23573;SDS011;11965;53.640;10.050;2023-05-10T13:44:14;10.73;;;10.73;;
23573;SDS011;11965;53.640;10.050;2023-05-10T15:11:07;12.85;;;12.85;;
23573;SDS011;11965;53.640;10.050;2023-05-10T15:13:34;11.80;;;11.80;;
23573;SDS011;11965;53.640;10.050;2023-05-10T15:16:01;10.21;;;10.21;;
23573;SDS011;11965;53.640;10.050;2023-05-10T15:18:28;9.38;;;9.38;;
23573;SDS011;11965;53.640;10.050;2023-05-10T15:20:55;9.06;;;9.06;;
23573;SDS011;11965;53.640;10.050;2023-05-10T15:23:23;8.90;;;8.90;;
23573;SDS011;11965;53.640;10.050;2023-05-10T15:25:50;8.55;;;8.55;;
23573;SDS011;11965;53.640;10.050;2023-05-10T15:28:22;8.02;;;8.02;;
23573;SDS011;11965;53.640;10.050;2023-05-10T15:30:49;8.05;;;8.05;;
23573;SDS011;11965;53.640;10.050;2023-05-10T15:33:16;7.70;;;7.70;;
23573;SDS011;11965;53.640;10.050;2023-05-10T15:35:43;7.28;;;7.28;;
23573;SDS011;11965;53.640;10.050;2023-05-10T15:38:10;7.38;;;7.38;;
23573;SDS011;11965;53.640;10.050;2023-05-10T15:40:37;7.72;;;7.72;;
23573;SDS011;11965;53.640;10.050;2023-05-10T15:43:04;7.85;;;7.85;;
23573;SDS011;11965;53.640;10.050;2023-05-10T15:45:33;7.95;;;7.95;;
23573;SDS011;11965;53.640;10.050;2023-05-10T15:47:59;8.22;;;8.22;;
23573;SDS011;11965;53.640;10.050;2023-05-10T15:50:26;9.52;;;9.52;;
23573;SDS011;11965;53.640;10.050;2023-05-10T15:52:53;9.10;;;9.10;;
23573;SDS011;11965;53.640;10.050;2023-05-10T15:55:20;9.04;;;9.04;;
23573;SDS011;11965;53.640;10.050;2023-05-10T15:57:47;8.53;;;8.53;;
23573;SDS011;11965;53.640;10.050;2023-05-10T16:00:14;7.62;;;7.62;;
23573;SDS011;11965;53.640;10.050;2023-05-10T16:02:43;7.93;;;7.93;;
23573;SDS011;11965;53.640;10.050;2023-05-10T16:05:10;7.57;;;7.57;;
23573;SDS011;11965;53.640;10.050;2023-05-10T16:07:38;7.39;;;7.39;;
23573;SDS011;11965;53.640;10.050;2023-05-10T16:10:07;7.56;;;7.56;;